Terminal Aerodrome Forecast
Issued by NWS

Home | Current Version | Previous Version | Text Only | Print | Product List | Glossary On
Versions: 1 2 3 4 5 6 7 8 9 10 11 12 13 14
000
FTUS45 KTFX 211700
TAFHVR
TAF
KHVR 211733Z 2118/2218 29015KT P6SM VCSH SCT060 BKN090
      TEMPO 2120/2124 VRB25G35KT -TSRA BKN050CB
     FM220000 25015G25KT P6SM -SHRA BKN050 OVC080
     FM221200 23011KT P6SM BKN100=

USA.gov is the U.S. government's official web portal to all federal, state and local government web resources and services.